sensor_id;sensor_type;location;lat;lon;timestamp;pressure;altitude;pressure_sealevel;temperature;humidity
22775;BME280;11554;51.106;3.684;2023-03-22T00:00:00;100885.78;;;7.43;100.0
22775;BME280;11554;51.106;3.684;2023-03-22T00:05:00;100871.46;;;7.52;100.0
22775;BME280;11554;51.106;3.684;2023-03-22T00:10:00;100863.4;;;7.60;100.0
22775;BME280;11554;51.106;3.684;2023-03-22T00:15:00;100859.36;;;7.74;100.0
22775;BME280;11554;51.106;3.684;2023-03-22T00:20:00;100854.97;;;7.75;100.0
22775;BME280;11554;51.106;3.684;2023-03-22T00:25:00;100846.94;;;7.83;100.0
22775;BME280;11554;51.106;3.684;2023-03-22T00:30:00;100839.94;;;7.99;100.0
22775;BME280;11554;51.106;3.684;2023-03-22T00:35:00;100819.05;;;8.11;100.0
22775;BME280;11554;51.106;3.684;2023-03-22T00:40:00;100817.36;;;8.25;100.0
22775;BME280;11554;51.106;3.684;2023-03-22T00:45:00;100807.23000000001;;;8.37;100.0
22775;BME280;11554;51.106;3.684;2023-03-22T00:50:00;100806.41;;;8.41;100.0
22775;BME280;11554;51.106;3.684;2023-03-22T00:55:00;100797.28;;;8.55;100.0
22775;BME280;11554;51.106;3.684;2023-03-22T01:00:00;100791.26;;;8.63;100.0
22775;BME280;11554;51.106;3.684;2023-03-22T01:05:00;100789.09;;;8.75;100.0
22775;BME280;11554;51.106;3.684;2023-03-22T01:10:00;100780.94;;;8.76;100.0
22775;BME280;11554;51.106;3.684;2023-03-22T01:15:00;100771.73;;;8.80;100.0
22775;BME280;11554;51.106;3.684;2023-03-22T01:20:00;100769.19;;;8.92;100.0
22775;BME280;11554;51.106;3.684;2023-03-22T01:25:00;100769.37000000001;;;8.95;100.0
22775;BME280;11554;51.106;3.684;2023-03-22T01:30:00;100766.36;;;8.93;100.0
22775;BME280;11554;51.106;3.684;2023-03-22T01:35:00;100766.35;;;8.94;100.0
22775;BME280;11554;51.106;3.684;2023-03-22T01:40:00;100765.29000000001;;;8.97;100.0
22775;BME280;11554;51.106;3.684;2023-03-22T01:50:00;100746.82;;;9.02;100.0
22775;BME280;11554;51.106;3.684;2023-03-22T01:55:00;100737.41;;;9.06;100.0
22775;BME280;11554;51.106;3.684;2023-03-22T02:00:00;100730.02;;;9.10;100.0
22775;BME280;11554;51.106;3.684;2023-03-22T02:05:00;100725.31;;;9.09;100.0
22775;BME280;11554;51.106;3.684;2023-03-22T02:10:00;100717.57;;;9.06;100.0
22775;BME280;11554;51.106;3.684;2023-03-22T02:15:02;100716.0;;;9.12;100.0
22775;BME280;11554;51.106;3.684;2023-03-22T02:25:06;100706.78;;;9.06;100.0
22775;BME280;11554;51.106;3.684;2023-03-22T02:30:04;100706.05;;;9.09;100.0
22775;BME280;11554;51.106;3.684;2023-03-22T02:40:01;100689.47;;;9.00;100.0
22775;BME280;11554;51.106;3.684;2023-03-22T02:45:00;100691.44;;;8.93;100.0
22775;BME280;11554;51.106;3.684;2023-03-22T02:50:01;100689.01;;;8.90;100.0
22775;BME280;11554;51.106;3.684;2023-03-22T02:55:01;100687.89;;;8.84;100.0
22775;BME280;11554;51.106;3.684;2023-03-22T03:00:00;100682.48;;;8.78;100.0
22775;BME280;11554;51.106;3.684;2023-03-22T03:05:00;100679.85;;;8.74;100.0
22775;BME280;11554;51.106;3.684;2023-03-22T03:10:00;100677.07;;;8.76;100.0
22775;BME280;11554;51.106;3.684;2023-03-22T03:15:00;100680.58;;;8.71;100.0
22775;BME280;11554;51.106;3.684;2023-03-22T03:20:04;100675.37;;;8.71;100.0
22775;BME280;11554;51.106;3.684;2023-03-22T03:25:01;100666.14;;;8.69;100.0
22775;BME280;11554;51.106;3.684;2023-03-22T03:30:01;100668.11;;;8.70;100.0
22775;BME280;11554;51.106;3.684;2023-03-22T03:35:02;100667.55;;;8.73;100.0
22775;BME280;11554;51.106;3.684;2023-03-22T03:40:02;100671.04000000001;;;8.75;100.0
22775;BME280;11554;51.106;3.684;2023-03-22T03:45:00;100673.63;;;8.73;100.0
22775;BME280;11554;51.106;3.684;2023-03-22T03:50:00;100677.23;;;8.71;100.0
22775;BME280;11554;51.106;3.684;2023-03-22T03:55:00;100673.47;;;8.69;100.0
22775;BME280;11554;51.106;3.684;2023-03-22T04:00:00;100666.72;;;8.69;100.0
22775;BME280;11554;51.106;3.684;2023-03-22T04:05:00;100663.81999999999;;;8.65;100.0
22775;BME280;11554;51.106;3.684;2023-03-22T04:10:00;100659.64;;;8.67;100.0
22775;BME280;11554;51.106;3.684;2023-03-22T04:15:00;100648.75;;;8.65;100.0
22775;BME280;11554;51.106;3.684;2023-03-22T04:20:00;100658.26;;;8.64;100.0
22775;BME280;11554;51.106;3.684;2023-03-22T04:25:00;100650.85;;;8.62;100.0
22775;BME280;11554;51.106;3.684;2023-03-22T04:30:00;100645.17;;;8.60;100.0
22775;BME280;11554;51.106;3.684;2023-03-22T04:35:00;100653.34;;;8.55;100.0
22775;BME280;11554;51.106;3.684;2023-03-22T04:40:00;100656.18;;;8.53;100.0
22775;BME280;11554;51.106;3.684;2023-03-22T04:45:00;100657.84999999999;;;8.56;100.0
22775;BME280;11554;51.106;3.684;2023-03-22T04:50:00;100654.36;;;8.63;100.0
22775;BME280;11554;51.106;3.684;2023-03-22T04:55:00;100648.32;;;8.66;100.0
22775;BME280;11554;51.106;3.684;2023-03-22T05:00:00;100638.97;;;8.66;100.0
22775;BME280;11554;51.106;3.684;2023-03-22T05:05:00;100647.45;;;8.64;100.0
22775;BME280;11554;51.106;3.684;2023-03-22T05:10:00;100647.36;;;8.63;100.0
22775;BME280;11554;51.106;3.684;2023-03-22T05:15:00;100639.95;;;8.61;100.0
22775;BME280;11554;51.106;3.684;2023-03-22T05:20:00;100637.08;;;8.60;100.0
22775;BME280;11554;51.106;3.684;2023-03-22T05:25:00;100635.51999999999;;;8.58;100.0
22775;BME280;11554;51.106;3.684;2023-03-22T05:30:00;100631.4;;;8.55;100.0
22775;BME280;11554;51.106;3.684;2023-03-22T05:35:00;100627.23;;;8.49;100.0
22775;BME280;11554;51.106;3.684;2023-03-22T05:40:00;100627.07;;;8.44;100.0
22775;BME280;11554;51.106;3.684;2023-03-22T05:45:00;100629.03;;;8.44;100.0
22775;BME280;11554;51.106;3.684;2023-03-22T05:50:00;100618.4;;;8.47;100.0
22775;BME280;11554;51.106;3.684;2023-03-22T05:55:00;100626.92;;;8.46;100.0
22775;BME280;11554;51.106;3.684;2023-03-22T06:00:00;100623.43;;;8.49;100.0
22775;BME280;11554;51.106;3.684;2023-03-22T06:05:00;100624.3;;;8.51;100.0
22775;BME280;11554;51.106;3.684;2023-03-22T06:10:00;100627.59;;;8.53;100.0
22775;BME280;11554;51.106;3.684;2023-03-22T06:15:00;100626.12000000001;;;8.55;100.0
22775;BME280;11554;51.106;3.684;2023-03-22T06:20:00;100630.19;;;8.60;100.0
22775;BME280;11554;51.106;3.684;2023-03-22T06:25:00;100624.7;;;8.67;100.0
22775;BME280;11554;51.106;3.684;2023-03-22T06:30:00;100623.01999999999;;;8.76;100.0
22775;BME280;11554;51.106;3.684;2023-03-22T06:35:00;100631.36;;;8.88;100.0
22775;BME280;11554;51.106;3.684;2023-03-22T06:40:00;100633.11;;;8.96;100.0
22775;BME280;11554;51.106;3.684;2023-03-22T06:55:00;100626.93000000001;;;9.21;100.0
22775;BME280;11554;51.106;3.684;2023-03-22T07:00:00;100644.55;;;9.34;100.0
22775;BME280;11554;51.106;3.684;2023-03-22T07:05:00;100630.89;;;9.47;100.0
22775;BME280;11554;51.106;3.684;2023-03-22T07:10:00;100631.82;;;9.51;100.0
22775;BME280;11554;51.106;3.684;2023-03-22T07:15:00;100624.65999999999;;;9.51;100.0
22775;BME280;11554;51.106;3.684;2023-03-22T07:20:00;100646.83;;;9.53;100.0
22775;BME280;11554;51.106;3.684;2023-03-22T07:25:00;100651.53;;;9.59;100.0
22775;BME280;11554;51.106;3.684;2023-03-22T07:30:00;100651.26000000001;;;9.59;100.0
22775;BME280;11554;51.106;3.684;2023-03-22T07:40:00;100634.37;;;9.66;100.0
22775;BME280;11554;51.106;3.684;2023-03-22T07:45:00;100645.36;;;9.69;100.0
22775;BME280;11554;51.106;3.684;2023-03-22T07:50:00;100651.70000000001;;;9.67;100.0
22775;BME280;11554;51.106;3.684;2023-03-22T07:55:00;100652.54;;;9.68;100.0
22775;BME280;11554;51.106;3.684;2023-03-22T08:00:00;100649.59;;;9.70;100.0
22775;BME280;11554;51.106;3.684;2023-03-22T08:05:00;100642.7;;;9.73;100.0
22775;BME280;11554;51.106;3.684;2023-03-22T08:10:00;100637.06;;;9.76;100.0
22775;BME280;11554;51.106;3.684;2023-03-22T08:15:00;100636.8;;;9.79;100.0
22775;BME280;11554;51.106;3.684;2023-03-22T08:20:00;100624.64;;;9.83;100.0
22775;BME280;11554;51.106;3.684;2023-03-22T08:25:00;100617.67;;;9.98;100.0
22775;BME280;11554;51.106;3.684;2023-03-22T08:30:00;100606.43;;;10.20;100.0
22775;BME280;11554;51.106;3.684;2023-03-22T08:35:00;100613.42;;;10.41;100.0
22775;BME280;11554;51.106;3.684;2023-03-22T08:40:00;100612.45;;;10.37;100.0
22775;BME280;11554;51.106;3.684;2023-03-22T08:45:00;100610.53;;;10.35;100.0
22775;BME280;11554;51.106;3.684;2023-03-22T08:50:00;100608.4;;;10.37;100.0
22775;BME280;11554;51.106;3.684;2023-03-22T08:55:00;100611.18000000001;;;10.57;100.0
22775;BME280;11554;51.106;3.684;2023-03-22T09:00:00;100616.5;;;10.71;100.0
22775;BME280;11554;51.106;3.684;2023-03-22T09:05:00;100622.82;;;10.61;100.0
22775;BME280;11554;51.106;3.684;2023-03-22T09:10:00;100617.76999999999;;;10.40;100.0
22775;BME280;11554;51.106;3.684;2023-03-22T09:15:00;100624.11;;;10.23;100.0
22775;BME280;11554;51.106;3.684;2023-03-22T09:20:00;100618.43000000001;;;10.18;100.0
22775;BME280;11554;51.106;3.684;2023-03-22T09:25:00;100614.71;;;10.25;100.0
22775;BME280;11554;51.106;3.684;2023-03-22T09:30:00;100616.90999999999;;;10.18;100.0
22775;BME280;11554;51.106;3.684;2023-03-22T09:35:00;100613.16;;;10.13;100.0
22775;BME280;11554;51.106;3.684;2023-03-22T09:40:00;100612.92;;;10.22;100.0
22775;BME280;11554;51.106;3.684;2023-03-22T09:45:00;100611.75;;;10.36;100.0
22775;BME280;11554;51.106;3.684;2023-03-22T09:50:02;100610.70999999999;;;10.32;100.0
22775;BME280;11554;51.106;3.684;2023-03-22T09:55:00;100602.89;;;10.39;100.0
22775;BME280;11554;51.106;3.684;2023-03-22T10:00:02;100614.79000000001;;;10.42;100.0
22775;BME280;11554;51.106;3.684;2023-03-22T10:05:02;100609.13;;;10.72;100.0
22775;BME280;11554;51.106;3.684;2023-03-22T10:10:05;100601.67;;;10.77;100.0
22775;BME280;11554;51.106;3.684;2023-03-22T10:15:02;100599.87;;;10.77;100.0
22775;BME280;11554;51.106;3.684;2023-03-22T10:20:02;100596.39;;;10.72;100.0
22775;BME280;11554;51.106;3.684;2023-03-22T10:25:00;100591.76999999999;;;10.71;100.0
22775;BME280;11554;51.106;3.684;2023-03-22T10:30:02;100587.58;;;10.74;100.0
22775;BME280;11554;51.106;3.684;2023-03-22T10:35:00;100593.76;;;10.75;100.0
22775;BME280;11554;51.106;3.684;2023-03-22T10:40:01;100584.63;;;10.80;100.0
22775;BME280;11554;51.106;3.684;2023-03-22T10:45:01;100577.91;;;11.02;100.0
22775;BME280;11554;51.106;3.684;2023-03-22T10:50:01;100562.36;;;11.26;100.0
22775;BME280;11554;51.106;3.684;2023-03-22T10:55:00;100567.88;;;11.35;100.0
22775;BME280;11554;51.106;3.684;2023-03-22T11:00:00;100575.23;;;11.62;100.0
22775;BME280;11554;51.106;3.684;2023-03-22T11:05:01;100578.36;;;11.42;100.0
22775;BME280;11554;51.106;3.684;2023-03-22T11:15:00;100579.63;;;11.58;100.0
22775;BME280;11554;51.106;3.684;2023-03-22T11:20:00;100589.94;;;11.59;100.0
22775;BME280;11554;51.106;3.684;2023-03-22T11:25:00;100600.36;;;11.56;100.0
22775;BME280;11554;51.106;3.684;2023-03-22T11:30:07;100586.36;;;11.44;100.0
22775;BME280;11554;51.106;3.684;2023-03-22T11:35:00;100592.40999999999;;;11.34;100.0
22775;BME280;11554;51.106;3.684;2023-03-22T11:40:00;100597.22;;;11.32;100.0
22775;BME280;11554;51.106;3.684;2023-03-22T11:45:00;100602.55;;;11.27;100.0
22775;BME280;11554;51.106;3.684;2023-03-22T11:50:02;100601.01;;;11.25;100.0
22775;BME280;11554;51.106;3.684;2023-03-22T11:55:00;100590.41;;;11.24;100.0
22775;BME280;11554;51.106;3.684;2023-03-22T12:00:00;100595.0;;;11.29;100.0
22775;BME280;11554;51.106;3.684;2023-03-22T12:05:02;100584.72;;;11.40;100.0
22775;BME280;11554;51.106;3.684;2023-03-22T12:10:02;100559.47;;;11.60;100.0
22775;BME280;11554;51.106;3.684;2023-03-22T12:15:01;100573.69;;;11.67;100.0
22775;BME280;11554;51.106;3.684;2023-03-22T12:20:03;100587.22;;;11.64;100.0
22775;BME280;11554;51.106;3.684;2023-03-22T12:25:00;100568.38;;;11.62;100.0
22775;BME280;11554;51.106;3.684;2023-03-22T12:30:02;100573.06999999999;;;11.70;100.0
22775;BME280;11554;51.106;3.684;2023-03-22T12:35:00;100566.28;;;11.75;100.0
22775;BME280;11554;51.106;3.684;2023-03-22T12:40:01;100556.02;;;11.78;100.0
22775;BME280;11554;51.106;3.684;2023-03-22T12:45:01;100554.97;;;11.78;100.0
22775;BME280;11554;51.106;3.684;2023-03-22T12:50:02;100555.47;;;11.85;100.0
22775;BME280;11554;51.106;3.684;2023-03-22T12:55:00;100550.5;;;11.81;100.0
22775;BME280;11554;51.106;3.684;2023-03-22T13:00:03;100550.05;;;11.82;100.0
22775;BME280;11554;51.106;3.684;2023-03-22T13:05:00;100554.83;;;11.90;100.0
22775;BME280;11554;51.106;3.684;2023-03-22T13:10:00;100564.18;;;11.94;100.0
22775;BME280;11554;51.106;3.684;2023-03-22T13:15:02;100546.17;;;11.90;100.0
22775;BME280;11554;51.106;3.684;2023-03-22T13:20:01;100531.23000000001;;;11.99;100.0
22775;BME280;11554;51.106;3.684;2023-03-22T13:25:04;100536.98000000001;;;12.01;100.0
22775;BME280;11554;51.106;3.684;2023-03-22T13:30:00;100525.59;;;12.02;100.0
22775;BME280;11554;51.106;3.684;2023-03-22T13:35:00;100529.16;;;12.05;100.0
22775;BME280;11554;51.106;3.684;2023-03-22T13:40:00;100525.7;;;12.00;100.0
22775;BME280;11554;51.106;3.684;2023-03-22T13:45:00;100523.47;;;12.03;100.0
22775;BME280;11554;51.106;3.684;2023-03-22T13:50:01;100511.1;;;12.13;100.0
22775;BME280;11554;51.106;3.684;2023-03-22T13:55:00;100505.07;;;12.12;100.0
22775;BME280;11554;51.106;3.684;2023-03-22T14:00:01;100497.77;;;12.23;100.0
22775;BME280;11554;51.106;3.684;2023-03-22T14:05:02;100494.43;;;12.34;100.0
22775;BME280;11554;51.106;3.684;2023-03-22T14:10:01;100490.41;;;12.23;100.0
22775;BME280;11554;51.106;3.684;2023-03-22T14:15:00;100490.75;;;12.11;100.0
22775;BME280;11554;51.106;3.684;2023-03-22T14:20:00;100487.12000000001;;;12.03;100.0
22775;BME280;11554;51.106;3.684;2023-03-22T14:25:00;100486.95;;;11.98;100.0
22775;BME280;11554;51.106;3.684;2023-03-22T14:30:00;100478.42000000001;;;11.99;100.0
22775;BME280;11554;51.106;3.684;2023-03-22T14:35:02;100483.78;;;11.88;100.0
22775;BME280;11554;51.106;3.684;2023-03-22T14:40:07;100473.51999999999;;;11.85;100.0
22775;BME280;11554;51.106;3.684;2023-03-22T14:45:02;100471.98;;;11.89;100.0
22775;BME280;11554;51.106;3.684;2023-03-22T14:50:03;100472.43999999999;;;11.84;100.0
22775;BME280;11554;51.106;3.684;2023-03-22T14:55:00;100476.29;;;11.71;100.0
22775;BME280;11554;51.106;3.684;2023-03-22T15:00:00;100473.89;;;11.74;100.0
22775;BME280;11554;51.106;3.684;2023-03-22T15:05:00;100483.92;;;11.72;100.0
22775;BME280;11554;51.106;3.684;2023-03-22T15:15:01;100475.01;;;11.60;100.0
22775;BME280;11554;51.106;3.684;2023-03-22T15:20:00;100471.93;;;11.57;100.0
22775;BME280;11554;51.106;3.684;2023-03-22T15:25:01;100470.43;;;11.58;100.0
22775;BME280;11554;51.106;3.684;2023-03-22T15:30:00;100464.84;;;11.52;100.0
22775;BME280;11554;51.106;3.684;2023-03-22T15:35:02;100464.84;;;11.52;100.0
22775;BME280;11554;51.106;3.684;2023-03-22T15:40:00;100460.41;;;11.58;100.0
22775;BME280;11554;51.106;3.684;2023-03-22T15:45:01;100457.78;;;11.60;100.0
22775;BME280;11554;51.106;3.684;2023-03-22T15:50:00;100443.78;;;11.70;100.0
22775;BME280;11554;51.106;3.684;2023-03-22T15:55:01;100441.07;;;11.65;100.0
22775;BME280;11554;51.106;3.684;2023-03-22T16:00:01;100438.69;;;11.61;100.0
22775;BME280;11554;51.106;3.684;2023-03-22T16:05:00;100432.31;;;11.56;100.0
22775;BME280;11554;51.106;3.684;2023-03-22T16:10:00;100427.28;;;11.57;100.0
22775;BME280;11554;51.106;3.684;2023-03-22T16:15:00;100424.11;;;11.62;100.0
22775;BME280;11554;51.106;3.684;2023-03-22T16:20:00;100418.69;;;11.58;100.0
22775;BME280;11554;51.106;3.684;2023-03-22T16:25:00;100422.34999999999;;;11.54;100.0
22775;BME280;11554;51.106;3.684;2023-03-22T16:30:00;100404.38;;;11.53;100.0
22775;BME280;11554;51.106;3.684;2023-03-22T16:35:00;100404.36;;;11.51;100.0
22775;BME280;11554;51.106;3.684;2023-03-22T16:40:00;100405.2;;;11.50;100.0
22775;BME280;11554;51.106;3.684;2023-03-22T16:45:00;100408.31;;;11.48;100.0
22775;BME280;11554;51.106;3.684;2023-03-22T16:50:00;100392.64;;;11.47;100.0
22775;BME280;11554;51.106;3.684;2023-03-22T16:55:00;100408.48;;;11.44;100.0
22775;BME280;11554;51.106;3.684;2023-03-22T17:00:00;100415.02;;;11.39;100.0
22775;BME280;11554;51.106;3.684;2023-03-22T17:05:00;100418.76999999999;;;11.36;100.0
22775;BME280;11554;51.106;3.684;2023-03-22T17:10:01;100418.46;;;11.33;100.0
22775;BME280;11554;51.106;3.684;2023-03-22T17:15:00;100419.9;;;11.31;100.0
22775;BME280;11554;51.106;3.684;2023-03-22T17:20:00;100412.06;;;11.31;100.0
22775;BME280;11554;51.106;3.684;2023-03-22T17:25:00;100408.26;;;11.31;100.0
22775;BME280;11554;51.106;3.684;2023-03-22T17:30:00;100401.68;;;11.30;100.0
22775;BME280;11554;51.106;3.684;2023-03-22T17:35:00;100400.73999999999;;;11.28;100.0
22775;BME280;11554;51.106;3.684;2023-03-22T17:40:00;100404.52;;;11.27;100.0
22775;BME280;11554;51.106;3.684;2023-03-22T17:45:00;100395.12;;;11.26;100.0
22775;BME280;11554;51.106;3.684;2023-03-22T17:50:00;100376.81;;;11.27;100.0
22775;BME280;11554;51.106;3.684;2023-03-22T17:55:00;100385.29999999999;;;11.26;100.0
22775;BME280;11554;51.106;3.684;2023-03-22T18:00:00;100395.45000000001;;;11.22;100.0
22775;BME280;11554;51.106;3.684;2023-03-22T18:05:00;100389.14;;;11.21;100.0
22775;BME280;11554;51.106;3.684;2023-03-22T18:10:00;100385.1;;;11.18;100.0
22775;BME280;11554;51.106;3.684;2023-03-22T18:15:00;100385.11;;;11.15;100.0
22775;BME280;11554;51.106;3.684;2023-03-22T18:20:00;100370.31;;;11.09;100.0
22775;BME280;11554;51.106;3.684;2023-03-22T18:25:00;100365.3;;;11.06;100.0
22775;BME280;11554;51.106;3.684;2023-03-22T18:30:00;100337.26000000001;;;11.03;100.0
22775;BME280;11554;51.106;3.684;2023-03-22T18:35:00;100343.17;;;11.00;100.0
22775;BME280;11554;51.106;3.684;2023-03-22T18:40:00;100334.69;;;10.98;100.0
22775;BME280;11554;51.106;3.684;2023-03-22T18:45:00;100317.67;;;10.96;100.0
22775;BME280;11554;51.106;3.684;2023-03-22T18:50:00;100297.38;;;10.97;100.0
22775;BME280;11554;51.106;3.684;2023-03-22T18:55:00;100310.58;;;10.96;100.0
22775;BME280;11554;51.106;3.684;2023-03-22T19:00:00;100316.31;;;10.98;100.0
22775;BME280;11554;51.106;3.684;2023-03-22T19:05:00;100333.51;;;10.99;100.0
22775;BME280;11554;51.106;3.684;2023-03-22T19:10:00;100322.91;;;10.99;100.0
22775;BME280;11554;51.106;3.684;2023-03-22T19:15:00;100341.74;;;10.96;100.0
22775;BME280;11554;51.106;3.684;2023-03-22T19:20:00;100354.31999999999;;;10.98;100.0
22775;BME280;11554;51.106;3.684;2023-03-22T19:25:00;100336.15999999999;;;10.99;100.0
22775;BME280;11554;51.106;3.684;2023-03-22T19:30:00;100337.61;;;10.99;100.0
22775;BME280;11554;51.106;3.684;2023-03-22T19:35:00;100333.98;;;11.01;100.0
22775;BME280;11554;51.106;3.684;2023-03-22T19:40:00;100325.47;;;11.02;100.0
22775;BME280;11554;51.106;3.684;2023-03-22T19:45:00;100312.26000000001;;;11.03;100.0
22775;BME280;11554;51.106;3.684;2023-03-22T19:50:00;100325.95999999999;;;11.02;100.0
22775;BME280;11554;51.106;3.684;2023-03-22T19:55:00;100325.9;;;11.07;100.0
22775;BME280;11554;51.106;3.684;2023-03-22T20:00:00;100311.89;;;11.09;100.0
22775;BME280;11554;51.106;3.684;2023-03-22T20:05:00;100307.76;;;11.11;100.0
22775;BME280;11554;51.106;3.684;2023-03-22T20:10:00;100303.89;;;11.13;100.0
22775;BME280;11554;51.106;3.684;2023-03-22T20:15:00;100297.79999999999;;;11.15;100.0
22775;BME280;11554;51.106;3.684;2023-03-22T20:20:00;100293.81;;;11.19;100.0
22775;BME280;11554;51.106;3.684;2023-03-22T20:25:00;100293.59;;;11.22;100.0
22775;BME280;11554;51.106;3.684;2023-03-22T20:30:00;100291.44;;;11.29;100.0
22775;BME280;11554;51.106;3.684;2023-03-22T20:35:00;100290.94;;;11.29;100.0
22775;BME280;11554;51.106;3.684;2023-03-22T20:40:00;100286.23999999999;;;11.32;100.0
22775;BME280;11554;51.106;3.684;2023-03-22T20:45:00;100277.20000000001;;;11.35;100.0
22775;BME280;11554;51.106;3.684;2023-03-22T20:50:00;100272.65;;;11.38;100.0
22775;BME280;11554;51.106;3.684;2023-03-22T20:55:00;100276.48000000001;;;11.46;100.0
22775;BME280;11554;51.106;3.684;2023-03-22T21:00:00;100274.05;;;11.47;100.0
22775;BME280;11554;51.106;3.684;2023-03-22T21:05:00;100271.04000000001;;;11.49;100.0
22775;BME280;11554;51.106;3.684;2023-03-22T21:10:00;100266.85;;;11.55;100.0
22775;BME280;11554;51.106;3.684;2023-03-22T21:15:00;100260.37;;;11.60;100.0
22775;BME280;11554;51.106;3.684;2023-03-22T21:20:00;100263.76000000001;;;11.58;100.0
22775;BME280;11554;51.106;3.684;2023-03-22T21:25:00;100255.42;;;11.50;100.0
22775;BME280;11554;51.106;3.684;2023-03-22T21:30:00;100229.92;;;11.45;100.0
22775;BME280;11554;51.106;3.684;2023-03-22T21:35:00;100249.91;;;11.43;100.0
22775;BME280;11554;51.106;3.684;2023-03-22T21:40:00;100248.32;;;11.49;100.0
22775;BME280;11554;51.106;3.684;2023-03-22T21:45:00;100245.83;;;11.47;100.0
22775;BME280;11554;51.106;3.684;2023-03-22T21:50:00;100253.02;;;11.47;100.0
22775;BME280;11554;51.106;3.684;2023-03-22T21:55:00;100243.28;;;11.51;100.0
22775;BME280;11554;51.106;3.684;2023-03-22T22:00:00;100235.47;;;11.53;100.0
22775;BME280;11554;51.106;3.684;2023-03-22T22:05:00;100229.63;;;11.55;100.0
22775;BME280;11554;51.106;3.684;2023-03-22T22:10:00;100228.44;;;11.49;100.0
22775;BME280;11554;51.106;3.684;2023-03-22T22:15:00;100222.86;;;11.51;100.0
22775;BME280;11554;51.106;3.684;2023-03-22T22:20:00;100211.58;;;11.50;100.0
22775;BME280;11554;51.106;3.684;2023-03-22T22:25:00;100226.86;;;11.51;100.0
22775;BME280;11554;51.106;3.684;2023-03-22T22:30:00;100237.42;;;11.47;100.0
22775;BME280;11554;51.106;3.684;2023-03-22T22:35:00;100218.14;;;11.46;100.0
22775;BME280;11554;51.106;3.684;2023-03-22T22:40:00;100211.99;;;11.47;100.0
22775;BME280;11554;51.106;3.684;2023-03-22T22:45:00;100212.17;;;11.46;100.0
22775;BME280;11554;51.106;3.684;2023-03-22T22:50:00;100187.83;;;11.44;100.0
22775;BME280;11554;51.106;3.684;2023-03-22T22:55:01;100180.55;;;11.39;100.0
22775;BME280;11554;51.106;3.684;2023-03-22T23:00:00;100178.72;;;11.42;100.0
22775;BME280;11554;51.106;3.684;2023-03-22T23:05:00;100169.51000000001;;;11.45;100.0
22775;BME280;11554;51.106;3.684;2023-03-22T23:10:00;100161.11;;;11.44;100.0
22775;BME280;11554;51.106;3.684;2023-03-22T23:15:00;100164.98;;;11.42;100.0
22775;BME280;11554;51.106;3.684;2023-03-22T23:20:01;100152.06;;;11.39;100.0
22775;BME280;11554;51.106;3.684;2023-03-22T23:25:00;100156.92;;;11.42;100.0
22775;BME280;11554;51.106;3.684;2023-03-22T23:30:00;100158.23000000001;;;11.40;100.0
22775;BME280;11554;51.106;3.684;2023-03-22T23:35:00;100171.01;;;11.43;100.0
22775;BME280;11554;51.106;3.684;2023-03-22T23:40:01;100175.3;;;11.41;100.0
22775;BME280;11554;51.106;3.684;2023-03-22T23:45:00;100160.70999999999;;;11.43;100.0
22775;BME280;11554;51.106;3.684;2023-03-22T23:50:00;100144.2;;;11.40;100.0
22775;BME280;11554;51.106;3.684;2023-03-22T23:55:00;100138.12000000001;;;11.36;100.0
